sensor_id;sensor_type;location;lat;lon;timestamp;P1;durP1;ratioP1;P2;durP2;ratioP2
9938;SDS011;5008;50.656;7.188;2022-11-20T03:13:12;16.80;;;13.10;;
9938;SDS011;5008;50.656;7.188;2022-11-20T03:15:40;14.97;;;12.50;;
9938;SDS011;5008;50.656;7.188;2022-11-20T03:18:07;15.40;;;12.87;;
9938;SDS011;5008;50.656;7.188;2022-11-20T03:20:34;15.63;;;12.87;;
9938;SDS011;5008;50.656;7.188;2022-11-20T03:23:01;14.93;;;12.27;;
9938;SDS011;5008;50.656;7.188;2022-11-20T03:25:28;14.70;;;12.00;;
9938;SDS011;5008;50.656;7.188;2022-11-20T03:27:55;15.30;;;12.63;;
9938;SDS011;5008;50.656;7.188;2022-11-20T03:30:23;15.60;;;12.70;;
9938;SDS011;5008;50.656;7.188;2022-11-20T03:32:52;16.17;;;12.73;;
9938;SDS011;5008;50.656;7.188;2022-11-20T03:35:19;16.30;;;12.67;;
9938;SDS011;5008;50.656;7.188;2022-11-20T03:37:46;15.47;;;12.90;;
9938;SDS011;5008;50.656;7.188;2022-11-20T03:40:13;16.50;;;13.00;;
9938;SDS011;5008;50.656;7.188;2022-11-20T03:42:40;15.40;;;12.57;;
9938;SDS011;5008;50.656;7.188;2022-11-20T03:45:13;15.70;;;12.17;;
9938;SDS011;5008;50.656;7.188;2022-11-20T03:47:43;15.73;;;12.63;;
9938;SDS011;5008;50.656;7.188;2022-11-20T03:50:11;15.10;;;12.83;;
9938;SDS011;5008;50.656;7.188;2022-11-20T03:52:45;16.13;;;13.03;;
9938;SDS011;5008;50.656;7.188;2022-11-20T03:55:12;17.00;;;12.90;;
9938;SDS011;5008;50.656;7.188;2022-11-20T03:57:38;14.97;;;12.93;;
9938;SDS011;5008;50.656;7.188;2022-11-20T04:00:06;15.93;;;12.93;;
9938;SDS011;5008;50.656;7.188;2022-11-20T04:02:33;14.60;;;11.83;;
9938;SDS011;5008;50.656;7.188;2022-11-20T04:05:02;15.77;;;12.70;;
9938;SDS011;5008;50.656;7.188;2022-11-20T04:07:29;16.40;;;12.77;;
9938;SDS011;5008;50.656;7.188;2022-11-20T04:09:59;16.57;;;12.60;;
9938;SDS011;5008;50.656;7.188;2022-11-20T04:12:26;15.00;;;12.63;;
9938;SDS011;5008;50.656;7.188;2022-11-20T04:15:04;17.03;;;13.47;;
9938;SDS011;5008;50.656;7.188;2022-11-20T04:17:31;17.13;;;13.47;;
9938;SDS011;5008;50.656;7.188;2022-11-20T04:19:58;18.67;;;13.63;;
9938;SDS011;5008;50.656;7.188;2022-11-20T04:22:26;15.17;;;12.60;;
9938;SDS011;5008;50.656;7.188;2022-11-20T04:24:53;16.10;;;12.70;;
9938;SDS011;5008;50.656;7.188;2022-11-20T04:27:21;15.47;;;12.20;;
9938;SDS011;5008;50.656;7.188;2022-11-20T04:29:47;16.63;;;12.67;;
9938;SDS011;5008;50.656;7.188;2022-11-20T04:32:15;15.90;;;12.83;;
9938;SDS011;5008;50.656;7.188;2022-11-20T04:34:41;14.77;;;12.63;;
9938;SDS011;5008;50.656;7.188;2022-11-20T04:37:08;14.03;;;11.13;;
9938;SDS011;5008;50.656;7.188;2022-11-20T04:39:37;16.27;;;12.47;;
9938;SDS011;5008;50.656;7.188;2022-11-20T04:44:55;17.03;;;12.73;;
9938;SDS011;5008;50.656;7.188;2022-11-20T04:47:22;15.97;;;13.07;;
9938;SDS011;5008;50.656;7.188;2022-11-20T04:49:49;16.70;;;12.67;;
9938;SDS011;5008;50.656;7.188;2022-11-20T04:52:16;15.20;;;12.27;;
9938;SDS011;5008;50.656;7.188;2022-11-20T04:54:44;16.83;;;12.43;;
9938;SDS011;5008;50.656;7.188;2022-11-20T04:57:17;14.97;;;12.80;;
9938;SDS011;5008;50.656;7.188;2022-11-20T04:59:47;17.73;;;13.87;;
9938;SDS011;5008;50.656;7.188;2022-11-20T05:02:14;14.07;;;11.50;;
9938;SDS011;5008;50.656;7.188;2022-11-20T05:04:43;17.40;;;12.90;;
9938;SDS011;5008;50.656;7.188;2022-11-20T05:07:13;17.60;;;13.27;;
9938;SDS011;5008;50.656;7.188;2022-11-20T05:09:42;16.17;;;13.13;;
9938;SDS011;5008;50.656;7.188;2022-11-20T05:12:11;16.73;;;13.13;;
9938;SDS011;5008;50.656;7.188;2022-11-20T05:14:38;17.07;;;13.47;;
9938;SDS011;5008;50.656;7.188;2022-11-20T05:17:04;18.57;;;14.00;;
9938;SDS011;5008;50.656;7.188;2022-11-20T05:19:31;18.90;;;13.80;;
9938;SDS011;5008;50.656;7.188;2022-11-20T05:21:58;16.20;;;13.27;;
9938;SDS011;5008;50.656;7.188;2022-11-20T05:24:28;16.93;;;13.43;;
9938;SDS011;5008;50.656;7.188;2022-11-20T05:26:59;17.63;;;13.67;;
9938;SDS011;5008;50.656;7.188;2022-11-20T05:29:26;17.27;;;13.70;;
9938;SDS011;5008;50.656;7.188;2022-11-20T05:31:53;16.10;;;13.13;;
9938;SDS011;5008;50.656;7.188;2022-11-20T05:34:23;17.40;;;12.97;;
9938;SDS011;5008;50.656;7.188;2022-11-20T05:36:51;17.03;;;14.00;;
9938;SDS011;5008;50.656;7.188;2022-11-20T05:39:18;17.63;;;13.37;;
9938;SDS011;5008;50.656;7.188;2022-11-20T05:41:45;16.90;;;13.30;;
9938;SDS011;5008;50.656;7.188;2022-11-20T05:44:36;14.30;;;12.47;;
9938;SDS011;5008;50.656;7.188;2022-11-20T05:47:03;18.07;;;12.63;;
9938;SDS011;5008;50.656;7.188;2022-11-20T05:49:30;18.67;;;14.23;;
9938;SDS011;5008;50.656;7.188;2022-11-20T05:52:00;15.97;;;13.10;;
9938;SDS011;5008;50.656;7.188;2022-11-20T05:54:27;15.00;;;12.00;;
9938;SDS011;5008;50.656;7.188;2022-11-20T05:56:58;16.20;;;12.73;;
9938;SDS011;5008;50.656;7.188;2022-11-20T05:59:25;18.47;;;13.73;;
9938;SDS011;5008;50.656;7.188;2022-11-20T06:01:53;16.73;;;12.97;;
9938;SDS011;5008;50.656;7.188;2022-11-20T06:04:20;16.93;;;14.03;;
9938;SDS011;5008;50.656;7.188;2022-11-20T06:06:47;16.47;;;12.97;;
9938;SDS011;5008;50.656;7.188;2022-11-20T06:09:14;20.03;;;14.50;;
9938;SDS011;5008;50.656;7.188;2022-11-20T06:11:41;17.47;;;13.90;;
9938;SDS011;5008;50.656;7.188;2022-11-20T06:14:08;19.83;;;14.73;;
9938;SDS011;5008;50.656;7.188;2022-11-20T06:16:35;18.47;;;14.77;;
9938;SDS011;5008;50.656;7.188;2022-11-20T06:21:53;19.97;;;14.07;;
9938;SDS011;5008;50.656;7.188;2022-11-20T06:24:20;19.97;;;13.60;;
9938;SDS011;5008;50.656;7.188;2022-11-20T06:26:46;20.63;;;14.13;;
9938;SDS011;5008;50.656;7.188;2022-11-20T06:29:13;19.37;;;15.33;;
9938;SDS011;5008;50.656;7.188;2022-11-20T06:31:40;19.07;;;13.67;;
9938;SDS011;5008;50.656;7.188;2022-11-20T06:34:07;19.77;;;14.03;;
9938;SDS011;5008;50.656;7.188;2022-11-20T06:36:35;19.13;;;14.60;;
9938;SDS011;5008;50.656;7.188;2022-11-20T06:39:02;20.37;;;14.83;;
9938;SDS011;5008;50.656;7.188;2022-11-20T06:41:29;20.13;;;14.57;;
9938;SDS011;5008;50.656;7.188;2022-11-20T06:43:56;18.80;;;14.23;;
9938;SDS011;5008;50.656;7.188;2022-11-20T06:46:23;21.77;;;14.33;;
9938;SDS011;5008;50.656;7.188;2022-11-20T06:48:50;21.03;;;15.67;;
9938;SDS011;5008;50.656;7.188;2022-11-20T06:51:17;21.60;;;14.63;;
9938;SDS011;5008;50.656;7.188;2022-11-20T06:53:45;18.67;;;13.83;;
9938;SDS011;5008;50.656;7.188;2022-11-20T06:56:12;18.07;;;13.27;;
9938;SDS011;5008;50.656;7.188;2022-11-20T06:58:39;20.00;;;15.67;;
9938;SDS011;5008;50.656;7.188;2022-11-20T07:01:06;20.23;;;14.80;;
9938;SDS011;5008;50.656;7.188;2022-11-20T07:03:35;20.37;;;14.17;;
9938;SDS011;5008;50.656;7.188;2022-11-20T07:06:02;20.97;;;14.73;;
9938;SDS011;5008;50.656;7.188;2022-11-20T07:11:24;21.77;;;14.67;;
9938;SDS011;5008;50.656;7.188;2022-11-20T07:13:51;20.47;;;14.83;;
9938;SDS011;5008;50.656;7.188;2022-11-20T07:16:18;20.90;;;15.23;;
9938;SDS011;5008;50.656;7.188;2022-11-20T07:18:53;24.03;;;16.70;;
9938;SDS011;5008;50.656;7.188;2022-11-20T07:21:21;20.47;;;14.90;;
9938;SDS011;5008;50.656;7.188;2022-11-20T07:23:48;19.83;;;14.30;;
9938;SDS011;5008;50.656;7.188;2022-11-20T07:26:19;22.27;;;15.80;;
9938;SDS011;5008;50.656;7.188;2022-11-20T07:28:46;22.30;;;16.53;;
9938;SDS011;5008;50.656;7.188;2022-11-20T07:31:13;23.27;;;16.33;;
9938;SDS011;5008;50.656;7.188;2022-11-20T07:33:42;21.83;;;16.43;;
9938;SDS011;5008;50.656;7.188;2022-11-20T07:36:09;21.53;;;14.47;;
9938;SDS011;5008;50.656;7.188;2022-11-20T07:38:37;21.70;;;16.17;;
9938;SDS011;5008;50.656;7.188;2022-11-20T07:41:04;20.10;;;15.30;;
9938;SDS011;5008;50.656;7.188;2022-11-20T07:43:32;22.07;;;15.70;;
9938;SDS011;5008;50.656;7.188;2022-11-20T07:45:59;20.90;;;15.67;;
9938;SDS011;5008;50.656;7.188;2022-11-20T07:48:28;20.63;;;14.83;;
9938;SDS011;5008;50.656;7.188;2022-11-20T07:51:02;19.10;;;14.37;;
9938;SDS011;5008;50.656;7.188;2022-11-20T07:53:29;21.20;;;15.10;;
9938;SDS011;5008;50.656;7.188;2022-11-20T07:55:58;23.03;;;16.90;;
9938;SDS011;5008;50.656;7.188;2022-11-20T07:58:34;23.53;;;15.40;;
9938;SDS011;5008;50.656;7.188;2022-11-20T08:01:04;20.40;;;15.47;;
9938;SDS011;5008;50.656;7.188;2022-11-20T08:03:32;21.00;;;15.67;;
9938;SDS011;5008;50.656;7.188;2022-11-20T08:06:05;20.63;;;15.80;;
9938;SDS011;5008;50.656;7.188;2022-11-20T08:08:33;22.13;;;16.10;;
9938;SDS011;5008;50.656;7.188;2022-11-20T08:11:00;18.27;;;14.40;;
9938;SDS011;5008;50.656;7.188;2022-11-20T08:13:42;23.47;;;15.70;;
9938;SDS011;5008;50.656;7.188;2022-11-20T08:16:26;21.07;;;14.93;;
9938;SDS011;5008;50.656;7.188;2022-11-20T08:18:53;19.23;;;14.60;;
9938;SDS011;5008;50.656;7.188;2022-11-20T08:21:21;20.17;;;15.53;;
9938;SDS011;5008;50.656;7.188;2022-11-20T08:23:51;20.50;;;15.50;;
9938;SDS011;5008;50.656;7.188;2022-11-20T08:26:18;22.00;;;15.67;;
9938;SDS011;5008;50.656;7.188;2022-11-20T08:28:46;20.20;;;14.83;;
9938;SDS011;5008;50.656;7.188;2022-11-20T08:31:13;21.13;;;15.23;;
9938;SDS011;5008;50.656;7.188;2022-11-20T08:33:40;19.90;;;14.77;;
9938;SDS011;5008;50.656;7.188;2022-11-20T08:36:07;23.87;;;15.53;;
9938;SDS011;5008;50.656;7.188;2022-11-20T08:38:34;21.10;;;15.43;;
9938;SDS011;5008;50.656;7.188;2022-11-20T08:41:02;20.83;;;14.80;;
9938;SDS011;5008;50.656;7.188;2022-11-20T08:44:03;22.30;;;16.73;;
9938;SDS011;5008;50.656;7.188;2022-11-20T08:46:34;20.80;;;15.00;;
9938;SDS011;5008;50.656;7.188;2022-11-20T08:49:02;21.67;;;16.00;;
9938;SDS011;5008;50.656;7.188;2022-11-20T08:54:28;23.10;;;16.27;;
9938;SDS011;5008;50.656;7.188;2022-11-20T08:56:54;22.47;;;16.00;;
9938;SDS011;5008;50.656;7.188;2022-11-20T08:59:23;20.73;;;16.13;;
9938;SDS011;5008;50.656;7.188;2022-11-20T09:01:49;19.87;;;15.13;;
9938;SDS011;5008;50.656;7.188;2022-11-20T09:04:16;21.90;;;16.03;;
9938;SDS011;5008;50.656;7.188;2022-11-20T09:06:43;21.33;;;16.00;;
9938;SDS011;5008;50.656;7.188;2022-11-20T09:09:10;21.13;;;16.07;;
9938;SDS011;5008;50.656;7.188;2022-11-20T09:11:37;20.57;;;16.07;;
9938;SDS011;5008;50.656;7.188;2022-11-20T09:14:04;21.50;;;16.53;;
9938;SDS011;5008;50.656;7.188;2022-11-20T09:16:32;25.37;;;17.17;;
9938;SDS011;5008;50.656;7.188;2022-11-20T09:18:59;24.03;;;16.50;;
9938;SDS011;5008;50.656;7.188;2022-11-20T09:21:33;24.47;;;16.70;;
9938;SDS011;5008;50.656;7.188;2022-11-20T09:24:00;23.80;;;16.67;;
9938;SDS011;5008;50.656;7.188;2022-11-20T09:26:28;21.77;;;16.63;;
9938;SDS011;5008;50.656;7.188;2022-11-20T09:28:55;21.40;;;16.27;;
9938;SDS011;5008;50.656;7.188;2022-11-20T09:31:22;22.20;;;16.30;;
9938;SDS011;5008;50.656;7.188;2022-11-20T09:33:52;23.83;;;16.53;;
9938;SDS011;5008;50.656;7.188;2022-11-20T09:36:19;21.37;;;15.00;;
9938;SDS011;5008;50.656;7.188;2022-11-20T09:38:45;22.43;;;16.03;;
9938;SDS011;5008;50.656;7.188;2022-11-20T09:41:19;22.33;;;15.37;;
9938;SDS011;5008;50.656;7.188;2022-11-20T09:44:09;21.97;;;14.57;;
9938;SDS011;5008;50.656;7.188;2022-11-20T09:46:45;22.13;;;15.70;;
9938;SDS011;5008;50.656;7.188;2022-11-20T09:49:22;21.20;;;16.03;;
9938;SDS011;5008;50.656;7.188;2022-11-20T09:51:56;19.90;;;14.97;;
9938;SDS011;5008;50.656;7.188;2022-11-20T09:54:26;21.83;;;16.03;;
9938;SDS011;5008;50.656;7.188;2022-11-20T09:56:59;21.03;;;16.23;;
9938;SDS011;5008;50.656;7.188;2022-11-20T09:59:35;20.80;;;15.73;;
9938;SDS011;5008;50.656;7.188;2022-11-20T10:02:14;20.03;;;15.57;;
9938;SDS011;5008;50.656;7.188;2022-11-20T10:04:45;22.67;;;16.10;;
9938;SDS011;5008;50.656;7.188;2022-11-20T10:07:19;22.37;;;15.40;;
9938;SDS011;5008;50.656;7.188;2022-11-20T10:09:50;20.53;;;15.43;;
9938;SDS011;5008;50.656;7.188;2022-11-20T10:12:21;19.50;;;15.27;;
9938;SDS011;5008;50.656;7.188;2022-11-20T10:14:58;18.60;;;14.17;;
9938;SDS011;5008;50.656;7.188;2022-11-20T10:17:42;19.00;;;15.03;;
9938;SDS011;5008;50.656;7.188;2022-11-20T10:20:35;18.67;;;14.43;;
9938;SDS011;5008;50.656;7.188;2022-11-20T10:23:15;17.83;;;13.70;;
9938;SDS011;5008;50.656;7.188;2022-11-20T10:25:52;18.33;;;13.83;;
9938;SDS011;5008;50.656;7.188;2022-11-20T10:28:25;18.70;;;14.40;;
9938;SDS011;5008;50.656;7.188;2022-11-20T10:31:08;19.77;;;15.03;;
9938;SDS011;5008;50.656;7.188;2022-11-20T10:33:40;19.17;;;15.00;;
9938;SDS011;5008;50.656;7.188;2022-11-20T10:36:13;21.77;;;14.23;;
9938;SDS011;5008;50.656;7.188;2022-11-20T10:38:44;14.97;;;12.47;;
9938;SDS011;5008;50.656;7.188;2022-11-20T10:41:17;17.40;;;13.00;;
9938;SDS011;5008;50.656;7.188;2022-11-20T10:43:52;18.80;;;13.97;;
9938;SDS011;5008;50.656;7.188;2022-11-20T10:46:25;19.10;;;13.37;;
9938;SDS011;5008;50.656;7.188;2022-11-20T10:48:54;18.67;;;14.33;;
9938;SDS011;5008;50.656;7.188;2022-11-20T10:51:26;18.10;;;14.20;;
9938;SDS011;5008;50.656;7.188;2022-11-20T10:54:03;19.13;;;13.93;;
9938;SDS011;5008;50.656;7.188;2022-11-20T10:56:50;17.73;;;12.93;;
9938;SDS011;5008;50.656;7.188;2022-11-20T11:02:17;17.87;;;13.63;;
9938;SDS011;5008;50.656;7.188;2022-11-20T11:04:46;16.67;;;13.33;;
9938;SDS011;5008;50.656;7.188;2022-11-20T11:07:16;15.43;;;12.47;;
9938;SDS011;5008;50.656;7.188;2022-11-20T11:09:47;15.47;;;12.87;;
9938;SDS011;5008;50.656;7.188;2022-11-20T11:12:17;14.23;;;12.70;;
9938;SDS011;5008;50.656;7.188;2022-11-20T11:14:48;15.43;;;12.53;;
9938;SDS011;5008;50.656;7.188;2022-11-20T11:17:23;17.03;;;13.43;;
9938;SDS011;5008;50.656;7.188;2022-11-20T11:20:03;15.63;;;12.13;;
9938;SDS011;5008;50.656;7.188;2022-11-20T11:22:34;16.60;;;12.60;;
9938;SDS011;5008;50.656;7.188;2022-11-20T11:25:19;13.70;;;11.90;;
9938;SDS011;5008;50.656;7.188;2022-11-20T11:27:51;15.40;;;12.07;;
9938;SDS011;5008;50.656;7.188;2022-11-20T11:30:21;16.23;;;12.10;;
9938;SDS011;5008;50.656;7.188;2022-11-20T11:33:01;15.60;;;11.50;;
9938;SDS011;5008;50.656;7.188;2022-11-20T11:35:29;13.23;;;10.70;;
9938;SDS011;5008;50.656;7.188;2022-11-20T11:38:06;16.60;;;12.83;;
9938;SDS011;5008;50.656;7.188;2022-11-20T11:40:41;15.47;;;11.67;;
9938;SDS011;5008;50.656;7.188;2022-11-20T11:43:16;16.87;;;13.17;;
9938;SDS011;5008;50.656;7.188;2022-11-20T11:46:04;19.17;;;13.60;;
9938;SDS011;5008;50.656;7.188;2022-11-20T11:48:54;15.23;;;12.60;;
9938;SDS011;5008;50.656;7.188;2022-11-20T11:51:22;17.77;;;13.10;;
9938;SDS011;5008;50.656;7.188;2022-11-20T11:53:55;17.10;;;12.43;;
9938;SDS011;5008;50.656;7.188;2022-11-20T11:56:33;16.27;;;12.63;;
9938;SDS011;5008;50.656;7.188;2022-11-20T11:59:04;15.50;;;12.50;;
9938;SDS011;5008;50.656;7.188;2022-11-20T12:01:41;16.43;;;12.83;;
9938;SDS011;5008;50.656;7.188;2022-11-20T12:04:13;15.03;;;12.27;;
9938;SDS011;5008;50.656;7.188;2022-11-20T12:06:53;16.00;;;11.80;;
9938;SDS011;5008;50.656;7.188;2022-11-20T12:09:34;14.53;;;12.07;;
9938;SDS011;5008;50.656;7.188;2022-11-20T12:12:08;15.03;;;11.93;;
9938;SDS011;5008;50.656;7.188;2022-11-20T12:14:40;14.43;;;11.50;;
9938;SDS011;5008;50.656;7.188;2022-11-20T12:17:09;14.67;;;11.87;;
9938;SDS011;5008;50.656;7.188;2022-11-20T12:19:40;15.57;;;12.60;;
9938;SDS011;5008;50.656;7.188;2022-11-20T12:22:12;13.40;;;11.13;;
9938;SDS011;5008;50.656;7.188;2022-11-20T12:25:00;12.70;;;10.73;;
9938;SDS011;5008;50.656;7.188;2022-11-20T12:27:42;14.00;;;11.13;;
9938;SDS011;5008;50.656;7.188;2022-11-20T12:30:19;13.60;;;11.57;;
9938;SDS011;5008;50.656;7.188;2022-11-20T12:32:59;11.90;;;10.03;;
9938;SDS011;5008;50.656;7.188;2022-11-20T12:35:37;15.37;;;12.30;;
9938;SDS011;5008;50.656;7.188;2022-11-20T12:38:22;13.77;;;11.73;;
9938;SDS011;5008;50.656;7.188;2022-11-20T12:41:21;13.90;;;11.10;;
9938;SDS011;5008;50.656;7.188;2022-11-20T12:44:24;12.27;;;10.97;;
9938;SDS011;5008;50.656;7.188;2022-11-20T12:47:21;12.80;;;10.37;;
9938;SDS011;5008;50.656;7.188;2022-11-20T12:49:56;12.33;;;10.20;;
9938;SDS011;5008;50.656;7.188;2022-11-20T12:52:36;11.90;;;9.93;;
9938;SDS011;5008;50.656;7.188;2022-11-20T12:55:13;13.30;;;10.97;;
9938;SDS011;5008;50.656;7.188;2022-11-20T12:57:54;12.90;;;10.37;;
9938;SDS011;5008;50.656;7.188;2022-11-20T13:00:24;13.10;;;10.47;;
9938;SDS011;5008;50.656;7.188;2022-11-20T13:03:15;13.37;;;10.57;;
9938;SDS011;5008;50.656;7.188;2022-11-20T13:06:02;14.07;;;11.13;;
9938;SDS011;5008;50.656;7.188;2022-11-20T13:08:43;12.73;;;10.70;;
9938;SDS011;5008;50.656;7.188;2022-11-20T13:11:17;15.37;;;11.97;;
9938;SDS011;5008;50.656;7.188;2022-11-20T13:13:57;13.20;;;11.17;;
9938;SDS011;5008;50.656;7.188;2022-11-20T13:16:33;13.60;;;11.23;;
9938;SDS011;5008;50.656;7.188;2022-11-20T13:19:04;11.77;;;10.47;;
9938;SDS011;5008;50.656;7.188;2022-11-20T13:21:36;13.83;;;11.40;;
9938;SDS011;5008;50.656;7.188;2022-11-20T13:30:00;12.20;;;10.27;;
9938;SDS011;5008;50.656;7.188;2022-11-20T13:32:47;12.47;;;9.93;;
9938;SDS011;5008;50.656;7.188;2022-11-20T13:35:23;12.07;;;9.87;;
9938;SDS011;5008;50.656;7.188;2022-11-20T13:38:01;12.97;;;10.87;;
9938;SDS011;5008;50.656;7.188;2022-11-20T13:40:30;12.93;;;10.87;;
9938;SDS011;5008;50.656;7.188;2022-11-20T13:43:02;12.37;;;9.67;;
9938;SDS011;5008;50.656;7.188;2022-11-20T13:45:38;11.90;;;9.50;;
9938;SDS011;5008;50.656;7.188;2022-11-20T13:48:15;12.90;;;10.43;;
9938;SDS011;5008;50.656;7.188;2022-11-20T13:50:52;11.73;;;9.57;;
9938;SDS011;5008;50.656;7.188;2022-11-20T13:53:31;9.60;;;8.03;;
9938;SDS011;5008;50.656;7.188;2022-11-20T13:56:10;13.67;;;11.10;;
9938;SDS011;5008;50.656;7.188;2022-11-20T13:58:49;12.90;;;10.57;;
9938;SDS011;5008;50.656;7.188;2022-11-20T14:01:28;11.63;;;9.93;;
9938;SDS011;5008;50.656;7.188;2022-11-20T14:03:57;10.73;;;9.60;;
9938;SDS011;5008;50.656;7.188;2022-11-20T14:06:25;10.47;;;9.20;;
9938;SDS011;5008;50.656;7.188;2022-11-20T14:08:55;11.20;;;10.00;;
9938;SDS011;5008;50.656;7.188;2022-11-20T14:11:22;11.77;;;10.37;;
9938;SDS011;5008;50.656;7.188;2022-11-20T14:13:55;12.03;;;10.43;;
9938;SDS011;5008;50.656;7.188;2022-11-20T14:16:25;11.17;;;9.40;;
9938;SDS011;5008;50.656;7.188;2022-11-20T14:18:54;12.30;;;9.60;;
9938;SDS011;5008;50.656;7.188;2022-11-20T14:21:23;11.40;;;9.83;;
9938;SDS011;5008;50.656;7.188;2022-11-20T14:23:54;11.63;;;10.17;;
9938;SDS011;5008;50.656;7.188;2022-11-20T14:26:29;11.17;;;9.57;;
9938;SDS011;5008;50.656;7.188;2022-11-20T14:28:57;10.83;;;9.40;;
9938;SDS011;5008;50.656;7.188;2022-11-20T14:31:25;13.03;;;9.70;;
9938;SDS011;5008;50.656;7.188;2022-11-20T14:33:54;9.77;;;8.43;;
9938;SDS011;5008;50.656;7.188;2022-11-20T14:36:22;12.10;;;9.27;;
9938;SDS011;5008;50.656;7.188;2022-11-20T14:38:51;10.20;;;8.80;;
9938;SDS011;5008;50.656;7.188;2022-11-20T14:41:20;11.07;;;9.20;;
9938;SDS011;5008;50.656;7.188;2022-11-20T14:43:50;11.07;;;9.03;;
9938;SDS011;5008;50.656;7.188;2022-11-20T14:46:20;10.03;;;8.47;;
9938;SDS011;5008;50.656;7.188;2022-11-20T14:48:49;11.60;;;8.43;;
9938;SDS011;5008;50.656;7.188;2022-11-20T14:51:29;13.33;;;9.50;;
9938;SDS011;5008;50.656;7.188;2022-11-20T14:54:07;11.37;;;9.13;;
9938;SDS011;5008;50.656;7.188;2022-11-20T14:56:38;12.20;;;8.70;;
9938;SDS011;5008;50.656;7.188;2022-11-20T14:59:05;10.80;;;8.77;;
9938;SDS011;5008;50.656;7.188;2022-11-20T15:01:33;10.07;;;8.93;;
9938;SDS011;5008;50.656;7.188;2022-11-20T15:04:04;10.33;;;9.20;;
9938;SDS011;5008;50.656;7.188;2022-11-20T15:06:32;9.57;;;8.50;;
9938;SDS011;5008;50.656;7.188;2022-11-20T15:08:59;11.17;;;9.40;;
9938;SDS011;5008;50.656;7.188;2022-11-20T15:11:29;10.23;;;8.60;;
9938;SDS011;5008;50.656;7.188;2022-11-20T15:13:57;9.57;;;8.27;;
9938;SDS011;5008;50.656;7.188;2022-11-20T15:16:27;10.53;;;8.70;;
9938;SDS011;5008;50.656;7.188;2022-11-20T15:18:54;9.73;;;7.53;;
9938;SDS011;5008;50.656;7.188;2022-11-20T15:21:22;8.97;;;7.90;;
9938;SDS011;5008;50.656;7.188;2022-11-20T15:23:49;8.43;;;7.60;;
9938;SDS011;5008;50.656;7.188;2022-11-20T15:26:18;8.63;;;7.70;;
9938;SDS011;5008;50.656;7.188;2022-11-20T15:28:49;10.83;;;8.67;;
9938;SDS011;5008;50.656;7.188;2022-11-20T15:31:17;10.17;;;9.13;;
9938;SDS011;5008;50.656;7.188;2022-11-20T15:33:45;9.03;;;7.90;;
9938;SDS011;5008;50.656;7.188;2022-11-20T15:36:12;9.93;;;8.80;;
9938;SDS011;5008;50.656;7.188;2022-11-20T15:38:44;10.07;;;8.60;;
9938;SDS011;5008;50.656;7.188;2022-11-20T15:41:11;13.10;;;9.20;;
9938;SDS011;5008;50.656;7.188;2022-11-20T15:43:38;9.47;;;8.27;;
9938;SDS011;5008;50.656;7.188;2022-11-20T15:46:05;9.47;;;7.50;;
9938;SDS011;5008;50.656;7.188;2022-11-20T15:48:36;11.73;;;9.60;;
9938;SDS011;5008;50.656;7.188;2022-11-20T15:51:07;14.60;;;10.30;;
9938;SDS011;5008;50.656;7.188;2022-11-20T15:53:45;14.80;;;10.43;;
9938;SDS011;5008;50.656;7.188;2022-11-20T15:56:12;14.50;;;11.20;;
9938;SDS011;5008;50.656;7.188;2022-11-20T15:58:40;15.30;;;11.90;;
9938;SDS011;5008;50.656;7.188;2022-11-20T16:01:09;15.33;;;11.43;;
9938;SDS011;5008;50.656;7.188;2022-11-20T16:03:46;17.93;;;12.47;;
9938;SDS011;5008;50.656;7.188;2022-11-20T16:06:13;16.80;;;13.53;;
9938;SDS011;5008;50.656;7.188;2022-11-20T16:08:41;16.63;;;13.20;;
9938;SDS011;5008;50.656;7.188;2022-11-20T16:11:10;17.20;;;13.60;;
9938;SDS011;5008;50.656;7.188;2022-11-20T16:13:39;13.00;;;11.50;;
9938;SDS011;5008;50.656;7.188;2022-11-20T16:16:25;13.63;;;11.30;;
9938;SDS011;5008;50.656;7.188;2022-11-20T16:18:55;11.67;;;9.83;;
9938;SDS011;5008;50.656;7.188;2022-11-20T16:21:22;12.20;;;9.73;;
9938;SDS011;5008;50.656;7.188;2022-11-20T16:23:52;12.00;;;8.77;;
9938;SDS011;5008;50.656;7.188;2022-11-20T16:26:20;10.50;;;8.97;;
9938;SDS011;5008;50.656;7.188;2022-11-20T16:28:47;9.90;;;8.40;;
9938;SDS011;5008;50.656;7.188;2022-11-20T16:31:15;9.60;;;7.67;;
9938;SDS011;5008;50.656;7.188;2022-11-20T16:33:43;9.53;;;8.47;;
9938;SDS011;5008;50.656;7.188;2022-11-20T16:36:14;9.90;;;8.03;;
9938;SDS011;5008;50.656;7.188;2022-11-20T16:38:41;10.73;;;8.27;;
9938;SDS011;5008;50.656;7.188;2022-11-20T16:41:08;11.57;;;8.30;;
9938;SDS011;5008;50.656;7.188;2022-11-20T16:43:42;8.90;;;6.47;;
9938;SDS011;5008;50.656;7.188;2022-11-20T16:46:11;8.57;;;5.63;;
9938;SDS011;5008;50.656;7.188;2022-11-20T16:48:38;6.57;;;5.27;;
9938;SDS011;5008;50.656;7.188;2022-11-20T16:51:07;6.20;;;5.23;;
9938;SDS011;5008;50.656;7.188;2022-11-20T16:53:35;8.57;;;5.37;;
9938;SDS011;5008;50.656;7.188;2022-11-20T16:56:07;6.90;;;5.00;;
9938;SDS011;5008;50.656;7.188;2022-11-20T16:58:35;6.33;;;4.90;;
9938;SDS011;5008;50.656;7.188;2022-11-20T17:01:05;5.03;;;3.87;;
9938;SDS011;5008;50.656;7.188;2022-11-20T17:03:34;6.43;;;3.93;;
9938;SDS011;5008;50.656;7.188;2022-11-20T17:06:09;4.30;;;3.50;;
9938;SDS011;5008;50.656;7.188;2022-11-20T17:08:36;4.27;;;3.87;;
9938;SDS011;5008;50.656;7.188;2022-11-20T17:11:04;5.80;;;3.80;;
9938;SDS011;5008;50.656;7.188;2022-11-20T17:13:31;5.20;;;3.87;;
9938;SDS011;5008;50.656;7.188;2022-11-20T17:15:59;5.10;;;4.10;;
9938;SDS011;5008;50.656;7.188;2022-11-20T17:18:32;4.37;;;3.80;;
9938;SDS011;5008;50.656;7.188;2022-11-20T17:20:59;4.33;;;3.93;;
9938;SDS011;5008;50.656;7.188;2022-11-20T17:23:29;5.53;;;4.43;;
9938;SDS011;5008;50.656;7.188;2022-11-20T17:26:02;5.30;;;3.97;;
9938;SDS011;5008;50.656;7.188;2022-11-20T17:28:30;4.73;;;3.90;;
9938;SDS011;5008;50.656;7.188;2022-11-20T17:30:58;5.53;;;4.27;;
9938;SDS011;5008;50.656;7.188;2022-11-20T17:33:27;7.50;;;4.50;;
9938;SDS011;5008;50.656;7.188;2022-11-20T17:35:56;5.00;;;3.70;;
9938;SDS011;5008;50.656;7.188;2022-11-20T17:38:22;5.03;;;4.43;;
9938;SDS011;5008;50.656;7.188;2022-11-20T17:40:49;5.10;;;4.10;;
9938;SDS011;5008;50.656;7.188;2022-11-20T17:43:16;4.00;;;3.60;;
9938;SDS011;5008;50.656;7.188;2022-11-20T17:45:43;4.00;;;3.70;;
9938;SDS011;5008;50.656;7.188;2022-11-20T17:48:10;6.83;;;3.90;;
9938;SDS011;5008;50.656;7.188;2022-11-20T17:50:37;5.50;;;4.27;;
9938;SDS011;5008;50.656;7.188;2022-11-20T17:53:05;5.00;;;4.20;;
9938;SDS011;5008;50.656;7.188;2022-11-20T17:55:32;5.23;;;4.73;;
9938;SDS011;5008;50.656;7.188;2022-11-20T17:58:13;5.60;;;4.43;;
9938;SDS011;5008;50.656;7.188;2022-11-20T18:00:45;5.83;;;5.23;;
9938;SDS011;5008;50.656;7.188;2022-11-20T18:03:11;5.07;;;4.57;;
9938;SDS011;5008;50.656;7.188;2022-11-20T18:05:38;5.90;;;4.50;;
9938;SDS011;5008;50.656;7.188;2022-11-20T18:08:06;5.60;;;4.67;;
9938;SDS011;5008;50.656;7.188;2022-11-20T18:10:33;4.77;;;4.37;;
9938;SDS011;5008;50.656;7.188;2022-11-20T18:13:00;5.67;;;4.50;;
9938;SDS011;5008;50.656;7.188;2022-11-20T18:15:27;4.83;;;4.43;;
9938;SDS011;5008;50.656;7.188;2022-11-20T18:17:53;4.30;;;3.80;;
9938;SDS011;5008;50.656;7.188;2022-11-20T18:20:21;4.77;;;3.70;;
9938;SDS011;5008;50.656;7.188;2022-11-20T18:22:48;3.40;;;3.10;;
9938;SDS011;5008;50.656;7.188;2022-11-20T18:25:16;3.90;;;3.37;;
9938;SDS011;5008;50.656;7.188;2022-11-20T18:27:43;3.53;;;2.70;;
9938;SDS011;5008;50.656;7.188;2022-11-20T18:30:10;2.40;;;2.20;;
9938;SDS011;5008;50.656;7.188;2022-11-20T18:32:38;3.23;;;2.77;;
9938;SDS011;5008;50.656;7.188;2022-11-20T18:35:05;2.23;;;2.00;;
9938;SDS011;5008;50.656;7.188;2022-11-20T18:37:50;3.33;;;2.23;;
9938;SDS011;5008;50.656;7.188;2022-11-20T18:40:18;1.70;;;1.50;;
9938;SDS011;5008;50.656;7.188;2022-11-20T18:42:45;2.57;;;1.93;;
9938;SDS011;5008;50.656;7.188;2022-11-20T18:45:29;1.23;;;1.13;;
9938;SDS011;5008;50.656;7.188;2022-11-20T18:47:56;1.80;;;1.70;;
9938;SDS011;5008;50.656;7.188;2022-11-20T18:50:23;1.67;;;1.37;;